createdAt,value
2022-11-23T00:00:44.902Z,1.29
2022-11-23T00:03:18.120Z,1.28
2022-11-23T00:05:51.185Z,1.29
2022-11-23T00:08:23.917Z,1.34
2022-11-23T00:11:00.343Z,1.39
2022-11-23T00:13:35.255Z,1.41
2022-11-23T00:16:09.868Z,1.43
2022-11-23T00:18:43.005Z,1.43
2022-11-23T00:21:18.006Z,1.43
2022-11-23T00:23:51.532Z,1.42
2022-11-23T00:26:24.795Z,1.42
2022-11-23T00:28:58.129Z,1.43
2022-11-23T00:31:32.168Z,1.47
2022-11-23T00:34:05.430Z,1.48
2022-11-23T00:36:38.635Z,1.52
2022-11-23T00:39:11.732Z,1.55
2022-11-23T00:41:46.472Z,1.55
2022-11-23T00:44:19.715Z,1.54
2022-11-23T00:46:52.839Z,1.52
2022-11-23T00:49:25.894Z,1.50
2022-11-23T00:51:59.407Z,1.50
2022-11-23T00:54:32.476Z,1.51
2022-11-23T00:57:05.992Z,1.52
2022-11-23T00:59:38.876Z,1.47
2022-11-23T01:02:12.044Z,1.45
2022-11-23T01:04:45.260Z,1.45
2022-11-23T01:07:18.546Z,1.44
2022-11-23T01:09:51.862Z,1.46
2022-11-23T01:12:24.902Z,1.47
2022-11-23T01:14:58.174Z,1.45
2022-11-23T01:17:31.340Z,1.42
2022-11-23T01:20:04.723Z,1.45
2022-11-23T01:22:37.826Z,1.46
2022-11-23T01:25:11.510Z,1.48
2022-11-23T01:27:44.587Z,1.47
2022-11-23T01:30:18.717Z,1.44
2022-11-23T01:32:51.756Z,1.46
2022-11-23T01:35:24.841Z,1.44
2022-11-23T01:37:58.136Z,1.42
2022-11-23T01:40:31.469Z,1.41
2022-11-23T01:43:06.279Z,1.42
2022-11-23T01:45:42.291Z,1.43
2022-11-23T01:48:18.718Z,1.45
2022-11-23T01:50:53.704Z,1.47
2022-11-23T01:53:28.947Z,1.45
2022-11-23T01:56:04.318Z,1.43
2022-11-23T01:58:40.205Z,1.44
2022-11-23T02:01:14.488Z,1.45
2022-11-23T02:03:49.753Z,1.43
2022-11-23T02:06:24.478Z,1.45
2022-11-23T02:08:58.983Z,1.49
2022-11-23T02:11:32.444Z,1.46
2022-11-23T02:14:05.933Z,1.46
2022-11-23T02:16:40.083Z,1.47
2022-11-23T02:19:18.892Z,1.47
2022-11-23T02:21:54.200Z,1.48
2022-11-23T02:24:30.132Z,1.48
2022-11-23T02:27:03.681Z,1.50
2022-11-23T02:29:38.456Z,1.51
2022-11-23T02:32:11.596Z,1.49
2022-11-23T02:34:44.685Z,1.49
2022-11-23T02:37:19.540Z,1.51
2022-11-23T02:39:55.746Z,1.46
2022-11-23T02:42:31.088Z,1.45
2022-11-23T02:45:07.798Z,1.48
2022-11-23T02:47:42.334Z,1.53
2022-11-23T02:50:15.994Z,1.52
2022-11-23T02:52:49.107Z,1.52
2022-11-23T02:55:22.502Z,1.53
2022-11-23T02:57:55.606Z,1.53
2022-11-23T03:00:28.667Z,1.54
2022-11-23T03:03:04.964Z,1.58
2022-11-23T03:05:38.611Z,1.60
2022-11-23T03:08:11.822Z,1.57
2022-11-23T03:10:45.013Z,1.53
2022-11-23T03:13:18.071Z,1.48
2022-11-23T03:15:51.507Z,1.45
2022-11-23T03:18:26.811Z,1.45
2022-11-23T03:21:05.610Z,1.46
2022-11-23T03:23:40.541Z,1.44
2022-11-23T03:26:14.145Z,1.39
2022-11-23T03:28:53.296Z,1.38
2022-11-23T03:31:26.825Z,1.38
2022-11-23T03:34:00.269Z,1.40
2022-11-23T03:36:35.397Z,1.44
2022-11-23T03:39:09.234Z,1.43
2022-11-23T03:41:44.221Z,1.46
2022-11-23T03:44:17.553Z,1.45
2022-11-23T03:46:51.572Z,1.42
2022-11-23T03:49:24.654Z,1.39
2022-11-23T03:51:58.488Z,1.42
2022-11-23T03:54:32.823Z,1.43
2022-11-23T03:57:06.249Z,1.47
2022-11-23T03:59:39.717Z,1.46
2022-11-23T04:02:13.391Z,1.43
2022-11-23T04:04:48.513Z,1.44
2022-11-23T04:07:30.667Z,1.44
2022-11-23T04:10:04.657Z,1.48
2022-11-23T04:12:39.623Z,1.51
2022-11-23T04:15:14.360Z,1.48
2022-11-23T04:17:48.532Z,1.48
2022-11-23T04:20:22.399Z,1.52
2022-11-23T04:22:56.111Z,1.49
2022-11-23T04:25:30.541Z,1.47
2022-11-23T04:28:04.787Z,1.47
2022-11-23T04:30:38.525Z,1.50
2022-11-23T04:33:12.521Z,1.51
2022-11-23T04:35:46.235Z,1.52
2022-11-23T04:38:19.937Z,1.50
2022-11-23T04:40:53.870Z,1.43
2022-11-23T04:43:27.296Z,1.44
2022-11-23T04:46:00.681Z,1.43
2022-11-23T04:48:35.286Z,1.40
2022-11-23T04:51:09.831Z,1.43
2022-11-23T04:53:44.190Z,1.46
2022-11-23T04:56:18.698Z,1.48
2022-11-23T04:58:53.659Z,1.48
2022-11-23T05:01:27.329Z,1.46
2022-11-23T05:04:19.388Z,1.44
2022-11-23T05:06:53.711Z,1.44
2022-11-23T05:09:28.469Z,1.45
2022-11-23T05:12:03.600Z,1.47
2022-11-23T05:14:37.389Z,1.47
2022-11-23T05:17:11.527Z,1.51
2022-11-23T05:19:49.068Z,1.55
2022-11-23T05:22:24.709Z,1.59
2022-11-23T05:24:59.005Z,1.58
2022-11-23T05:27:32.563Z,1.59
2022-11-23T05:30:07.638Z,1.63
2022-11-23T05:32:41.912Z,1.59
2022-11-23T05:35:15.892Z,1.52
2022-11-23T05:37:49.444Z,1.53
2022-11-23T05:40:23.179Z,1.57
2022-11-23T05:42:58.800Z,1.59
2022-11-23T05:45:32.511Z,1.56
2022-11-23T05:48:07.198Z,1.54
2022-11-23T05:50:50.715Z,1.49
2022-11-23T05:53:27.609Z,1.46
2022-11-23T05:56:03.796Z,1.42
2022-11-23T05:58:40.100Z,1.45
2022-11-23T06:01:15.536Z,1.44
2022-11-23T06:03:52.042Z,1.39
2022-11-23T06:06:27.188Z,1.34
2022-11-23T06:09:05.560Z,1.35
2022-11-23T06:11:42.472Z,1.39
2022-11-23T06:14:19.665Z,1.46
2022-11-23T06:16:54.462Z,1.48
2022-11-23T06:19:36.018Z,1.48
2022-11-23T06:22:10.208Z,1.51
2022-11-23T06:24:45.318Z,1.47
2022-11-23T06:27:23.440Z,1.43
2022-11-23T06:29:57.467Z,1.46
2022-11-23T06:32:31.833Z,1.51
2022-11-23T06:35:06.204Z,1.57
2022-11-23T06:37:41.555Z,1.59
2022-11-23T06:40:15.762Z,1.60
2022-11-23T06:42:49.630Z,1.69
2022-11-23T06:45:24.437Z,1.72
2022-11-23T06:47:59.507Z,1.73
2022-11-23T06:50:32.292Z,1.75
2022-11-23T06:53:05.499Z,1.83
2022-11-23T06:55:40.983Z,1.86
2022-11-23T06:58:14.450Z,1.85
2022-11-23T07:00:49.162Z,1.83
2022-11-23T07:03:25.800Z,1.85
2022-11-23T07:06:07.533Z,1.85
2022-11-23T07:08:43.226Z,1.85
2022-11-23T07:11:27.327Z,1.89
2022-11-23T07:14:00.940Z,1.90
2022-11-23T07:16:35.195Z,1.89
2022-11-23T07:19:08.994Z,1.92
2022-11-23T07:21:42.496Z,1.93
2022-11-23T07:24:17.451Z,1.97
2022-11-23T07:26:51.509Z,1.97
2022-11-23T07:29:25.433Z,1.98
2022-11-23T07:31:59.169Z,1.97
2022-11-23T07:34:32.869Z,1.97
2022-11-23T07:37:06.436Z,2.01
2022-11-23T07:39:56.738Z,2.03
2022-11-23T07:42:34.462Z,1.95
2022-11-23T07:44:51.171Z,2.00
2022-11-23T07:47:24.487Z,2.00
2022-11-23T07:49:58.065Z,2.04
2022-11-23T07:52:31.701Z,2.02
2022-11-23T07:55:05.586Z,2.09
2022-11-23T07:57:38.775Z,2.14
2022-11-23T08:00:19.046Z,2.13
2022-11-23T08:03:25.467Z,2.20
2022-11-23T08:05:28.124Z,2.34
2022-11-23T08:08:02.956Z,2.39
2022-11-23T08:10:43.493Z,2.40
2022-11-23T08:13:12.006Z,2.46
2022-11-23T08:15:50.186Z,2.44
2022-11-23T08:18:20.283Z,2.43
2022-11-23T08:20:53.999Z,2.48
2022-11-23T08:23:27.502Z,2.48
2022-11-23T08:26:02.576Z,2.47
2022-11-23T08:28:37.617Z,2.51
2022-11-23T08:31:12.771Z,2.56
2022-11-23T08:33:48.317Z,2.65
2022-11-23T08:36:21.698Z,2.71
2022-11-23T08:38:55.369Z,2.64
2022-11-23T08:41:28.804Z,2.63
2022-11-23T08:44:02.456Z,2.64
2022-11-23T08:46:36.189Z,2.64
2022-11-23T08:49:10.322Z,2.67
2022-11-23T08:51:49.733Z,2.71
2022-11-23T08:54:18.339Z,2.77
2022-11-23T08:56:52.248Z,2.82
2022-11-23T08:59:25.947Z,2.83
2022-11-23T09:02:00.805Z,2.86
2022-11-23T09:04:37.946Z,2.80
2022-11-23T09:07:11.778Z,2.73
2022-11-23T09:09:45.485Z,2.71
2022-11-23T09:12:19.303Z,2.70
2022-11-23T09:14:54.307Z,2.67
2022-11-23T09:17:28.498Z,2.64
2022-11-23T09:20:02.609Z,2.68
2022-11-23T09:22:36.556Z,2.78
2022-11-23T09:25:11.615Z,2.80
2022-11-23T09:27:45.439Z,2.77
2022-11-23T09:30:20.917Z,2.77
2022-11-23T09:32:56.498Z,2.78
2022-11-23T09:35:30.175Z,2.76
2022-11-23T09:38:04.185Z,2.73
2022-11-23T09:40:40.170Z,2.76
2022-11-23T09:43:33.091Z,2.75
2022-11-23T09:46:11.327Z,2.79
2022-11-23T09:48:54.199Z,2.86
2022-11-23T09:51:27.609Z,2.90
2022-11-23T09:54:03.952Z,2.87
2022-11-23T09:56:39.021Z,2.88
2022-11-23T09:59:17.767Z,2.92
2022-11-23T10:01:51.452Z,3.01
2022-11-23T10:04:26.372Z,3.11
2022-11-23T10:07:02.910Z,3.10
2022-11-23T10:09:39.941Z,3.09
2022-11-23T10:12:25.852Z,3.02
2022-11-23T10:15:05.641Z,3.02
2022-11-23T10:17:53.389Z,3.12
2022-11-23T10:20:41.775Z,3.15
2022-11-23T10:23:21.045Z,3.09
2022-11-23T10:25:55.117Z,3.05
2022-11-23T10:28:31.375Z,3.05
2022-11-23T10:31:08.160Z,3.00
2022-11-23T10:33:45.602Z,2.99
2022-11-23T10:36:19.113Z,2.90
2022-11-23T10:38:55.760Z,2.82
2022-11-23T10:41:31.048Z,2.81
2022-11-23T10:44:07.709Z,2.84
2022-11-23T10:46:42.715Z,2.89
2022-11-23T10:49:23.933Z,2.87
2022-11-23T10:51:59.423Z,2.83
2022-11-23T10:54:36.365Z,2.75
2022-11-23T10:57:26.046Z,2.67
2022-11-23T11:00:02.440Z,2.59
2022-11-23T11:02:43.430Z,2.55
2022-11-23T11:05:46.271Z,2.42
2022-11-23T11:08:03.479Z,2.29
2022-11-23T11:10:42.165Z,2.21
2022-11-23T11:13:30.078Z,2.18
2022-11-23T11:16:06.189Z,2.12
2022-11-23T11:18:40.634Z,2.08
2022-11-23T11:21:21.323Z,2.03
2022-11-23T11:23:57.484Z,2.02
2022-11-23T11:26:32.893Z,2.00
2022-11-23T11:29:10.230Z,2.01
2022-11-23T11:31:52.085Z,1.97
2022-11-23T11:34:29.302Z,2.00
2022-11-23T11:37:07.950Z,2.03
2022-11-23T11:39:45.658Z,2.01
2022-11-23T11:42:23.354Z,1.93
2022-11-23T11:44:59.036Z,2.00
2022-11-23T11:47:37.021Z,2.09
2022-11-23T11:50:15.046Z,2.14
2022-11-23T11:52:51.491Z,2.21
2022-11-23T11:55:27.875Z,2.20
2022-11-23T11:58:05.486Z,2.21
2022-11-23T12:00:44.892Z,2.25
2022-11-23T12:03:21.937Z,2.24
2022-11-23T12:05:57.700Z,2.14
2022-11-23T12:08:35.860Z,2.07
2022-11-23T12:11:12.008Z,2.02
2022-11-23T12:13:47.629Z,2.03
2022-11-23T12:16:26.467Z,2.05
2022-11-23T12:19:21.080Z,2.07
2022-11-23T12:22:32.195Z,2.08
2022-11-23T12:25:15.715Z,1.96
2022-11-23T12:27:55.815Z,1.85
2022-11-23T12:30:35.453Z,1.75
2022-11-23T12:36:49.170Z,1.75
2022-11-23T12:39:32.211Z,1.63
2022-11-23T12:42:08.806Z,1.65
2022-11-23T12:45:03.387Z,1.61
2022-11-23T12:47:44.146Z,1.67
2022-11-23T12:50:22.243Z,1.72
2022-11-23T12:53:20.620Z,1.72
2022-11-23T12:55:57.142Z,1.66
2022-11-23T12:58:31.913Z,1.64
2022-11-23T13:01:09.561Z,1.66
2022-11-23T13:03:51.355Z,1.73
2022-11-23T13:07:20.748Z,1.77
2022-11-23T13:09:41.104Z,1.62
2022-11-23T13:12:27.134Z,1.61
2022-11-23T13:15:05.189Z,1.68
2022-11-23T13:17:42.868Z,1.61
2022-11-23T13:20:40.522Z,1.49
2022-11-23T13:23:12.802Z,1.41
2022-11-23T13:25:47.269Z,1.42
2022-11-23T13:28:33.344Z,1.37
2022-11-23T13:31:25.359Z,1.33
2022-11-23T13:34:00.227Z,1.22
2022-11-23T13:37:11.740Z,1.10
2022-11-23T13:39:57.556Z,1.07
2022-11-23T13:42:33.892Z,1.05
2022-11-23T13:45:30.514Z,1.02
2022-11-23T13:48:48.876Z,1.03
2022-11-23T13:51:03.133Z,1.01
2022-11-23T13:53:39.126Z,1.05
2022-11-23T13:56:29.573Z,1.10
2022-11-23T13:59:28.790Z,1.07
2022-11-23T14:02:04.969Z,1.06
2022-11-23T14:04:40.149Z,1.03
2022-11-23T14:07:16.861Z,1.01
2022-11-23T14:09:53.530Z,0.93
2022-11-23T14:12:31.046Z,0.82
2022-11-23T14:15:07.953Z,0.74
2022-11-23T14:18:48.105Z,0.76
2022-11-23T14:24:25.852Z,0.67
2022-11-23T14:27:45.095Z,0.54
2022-11-23T14:30:10.247Z,0.60
2022-11-23T14:32:50.769Z,0.64
2022-11-23T14:35:29.104Z,0.53
2022-11-23T14:38:33.639Z,0.42
2022-11-23T14:41:10.766Z,0.37
2022-11-23T14:43:43.899Z,0.33
2022-11-23T14:46:22.864Z,0.38
2022-11-23T14:49:30.827Z,0.42
2022-11-23T14:52:20.630Z,0.41
2022-11-23T14:54:55.301Z,0.39
2022-11-23T14:57:31.570Z,0.42
2022-11-23T15:00:11.677Z,0.42
2022-11-23T15:02:44.873Z,0.43
2022-11-23T15:05:21.338Z,0.38
2022-11-23T15:07:57.873Z,0.40
2022-11-23T15:10:40.038Z,0.44
2022-11-23T15:13:27.826Z,0.47
2022-11-23T15:16:06.504Z,0.44
2022-11-23T15:18:41.348Z,0.39
2022-11-23T15:21:27.196Z,0.43
2022-11-23T15:24:00.278Z,0.49
2022-11-23T15:26:48.155Z,0.49
2022-11-23T15:29:34.485Z,0.44
2022-11-23T15:32:33.887Z,0.37
2022-11-23T15:35:01.578Z,0.32
2022-11-23T15:37:37.592Z,0.28
2022-11-23T15:40:14.964Z,0.20
2022-11-23T15:42:49.942Z,0.22
2022-11-23T15:46:01.203Z,0.20
2022-11-23T15:48:37.168Z,0.23
2022-11-23T15:51:26.040Z,0.25
2022-11-23T15:54:01.615Z,0.19
2022-11-23T15:56:37.071Z,0.11
2022-11-23T15:59:18.438Z,0.11
2022-11-23T16:01:51.609Z,0.12
2022-11-23T16:04:31.486Z,0.08
2022-11-23T16:07:19.193Z,0.10
2022-11-23T16:09:56.251Z,0.11
2022-11-23T16:12:33.990Z,0.01
2022-11-23T16:15:49.641Z,-0.03
2022-11-23T16:18:27.890Z,-0.02
2022-11-23T16:21:05.134Z,0.01
2022-11-23T16:23:44.263Z,0.07
2022-11-23T16:26:18.584Z,0.09
2022-11-23T16:28:54.608Z,0.10
2022-11-23T16:31:33.379Z,0.11
2022-11-23T16:34:11.735Z,0.05
2022-11-23T16:36:44.867Z,-0.04
2022-11-23T16:39:18.066Z,-0.09
2022-11-23T16:41:51.504Z,-0.09
2022-11-23T16:44:24.596Z,-0.05
2022-11-23T16:46:59.258Z,0.02
2022-11-23T16:49:32.500Z,0.08
2022-11-23T16:52:06.103Z,0.07
2022-11-23T16:54:39.935Z,0.03
2022-11-23T16:57:19.666Z,0.02
2022-11-23T16:59:53.688Z,-0.05
2022-11-23T17:02:27.749Z,-0.09
2022-11-23T17:05:01.596Z,-0.07
2022-11-23T17:07:35.397Z,-0.10
2022-11-23T17:10:10.488Z,-0.06
2022-11-23T17:12:47.705Z,-0.03
2022-11-23T17:15:23.811Z,-0.04
2022-11-23T17:18:03.148Z,-0.05
2022-11-23T17:20:38.837Z,-0.06
2022-11-23T17:23:13.420Z,-0.07
2022-11-23T17:25:47.404Z,-0.05
2022-11-23T17:28:22.575Z,-0.03
2022-11-23T17:30:56.334Z,-0.04
2022-11-23T17:33:33.244Z,-0.02
2022-11-23T17:36:09.534Z,0.02
2022-11-23T17:38:44.908Z,0.02
2022-11-23T17:41:19.067Z,-0.05
2022-11-23T17:43:55.447Z,-0.10
2022-11-23T17:46:33.249Z,-0.07
2022-11-23T17:49:10.881Z,-0.07
2022-11-23T17:51:44.405Z,-0.17
2022-11-23T17:54:19.632Z,-0.23
2022-11-23T17:56:56.041Z,-0.25
2022-11-23T17:59:29.366Z,-0.23
2022-11-23T18:02:03.124Z,-0.21
2022-11-23T18:04:38.285Z,-0.19
2022-11-23T18:07:15.245Z,-0.17
2022-11-23T18:09:49.014Z,-0.12
2022-11-23T18:12:22.568Z,-0.08
2022-11-23T18:14:58.558Z,-0.12
2022-11-23T18:17:32.183Z,-0.12
2022-11-23T18:20:08.828Z,-0.15
2022-11-23T18:22:42.078Z,-0.26
2022-11-23T18:25:15.763Z,-0.27
2022-11-23T18:27:49.168Z,-0.28
2022-11-23T18:30:22.846Z,-0.24
2022-11-23T18:32:56.579Z,-0.20
2022-11-23T18:35:30.530Z,-0.16
2022-11-23T18:38:04.007Z,-0.18
2022-11-23T18:40:37.144Z,-0.17
2022-11-23T18:43:10.870Z,-0.17
2022-11-23T18:45:44.387Z,-0.26
2022-11-23T18:48:17.878Z,-0.31
2022-11-23T18:50:51.857Z,-0.39
2022-11-23T18:53:25.764Z,-0.56
2022-11-23T18:56:00.739Z,-0.64
2022-11-23T18:58:36.141Z,-0.64
2022-11-23T19:01:13.833Z,-0.70
2022-11-23T19:03:48.632Z,-0.79
2022-11-23T19:06:24.662Z,-0.89
2022-11-23T19:08:58.241Z,-0.89
2022-11-23T19:11:32.586Z,-0.86
2022-11-23T19:14:06.102Z,-0.89
2022-11-23T19:16:39.383Z,-0.93
2022-11-23T19:19:14.158Z,-0.93
2022-11-23T19:21:48.009Z,-1.01
2022-11-23T19:24:21.515Z,-1.01
2022-11-23T19:26:55.152Z,-0.97
2022-11-23T19:29:28.732Z,-0.97
2022-11-23T19:32:02.135Z,-0.94
2022-11-23T19:34:35.836Z,-0.90
2022-11-23T19:37:09.552Z,-0.91
2022-11-23T19:39:43.336Z,-0.90
2022-11-23T19:42:16.879Z,-0.90
2022-11-23T19:44:52.250Z,-0.92
2022-11-23T19:47:25.809Z,-0.97
2022-11-23T19:49:59.329Z,-1.07
2022-11-23T19:53:03.629Z,-1.09
2022-11-23T19:55:11.916Z,-1.12
2022-11-23T19:57:45.065Z,-1.05
2022-11-23T20:00:20.392Z,-1.06
2022-11-23T20:02:54.003Z,-1.02
2022-11-23T20:05:27.437Z,-1.03
2022-11-23T20:08:02.043Z,-1.07
2022-11-23T20:10:35.330Z,-1.12
2022-11-23T20:13:09.010Z,-1.12
2022-11-23T20:15:44.120Z,-1.15
2022-11-23T20:18:18.439Z,-1.19
2022-11-23T20:20:52.028Z,-1.20
2022-11-23T20:23:25.716Z,-1.22
2022-11-23T20:25:59.838Z,-1.21
2022-11-23T20:28:33.244Z,-1.23
2022-11-23T20:31:08.151Z,-1.21
2022-11-23T20:33:41.633Z,-1.23
2022-11-23T20:36:18.861Z,-1.23
2022-11-23T20:38:52.794Z,-1.25
2022-11-23T20:41:27.636Z,-1.22
2022-11-23T20:44:03.137Z,-1.27
2022-11-23T20:49:12.259Z,-1.26
2022-11-23T20:51:45.586Z,-1.25
2022-11-23T20:54:19.117Z,-1.24
2022-11-23T20:56:52.369Z,-1.27
2022-11-23T20:59:25.864Z,-1.28
2022-11-23T21:01:59.121Z,-1.25
2022-11-23T21:04:33.566Z,-1.24
2022-11-23T21:07:07.740Z,-1.23
2022-11-23T21:09:41.163Z,-1.22
2022-11-23T21:12:32.171Z,-1.24
2022-11-23T21:15:06.594Z,-1.31
2022-11-23T21:17:40.413Z,-1.35
2022-11-23T21:20:14.927Z,-1.37
2022-11-23T21:22:48.496Z,-1.43
2022-11-23T21:25:22.149Z,-1.45
2022-11-23T21:27:55.884Z,-1.45
2022-11-23T21:30:29.572Z,-1.45
2022-11-23T21:33:03.313Z,-1.40
2022-11-23T21:35:38.319Z,-1.37
2022-11-23T21:38:11.840Z,-1.41
2022-11-23T21:40:45.702Z,-1.43
2022-11-23T21:43:19.457Z,-1.44
2022-11-23T21:46:00.861Z,-1.45
2022-11-23T21:48:34.785Z,-1.43
2022-11-23T21:51:10.531Z,-1.47
2022-11-23T21:53:44.882Z,-1.44
2022-11-23T21:56:19.267Z,-1.46
2022-11-23T21:58:53.235Z,-1.47
2022-11-23T22:01:28.787Z,-1.45
2022-11-23T22:04:04.589Z,-1.43
2022-11-23T22:06:37.955Z,-1.44
2022-11-23T22:09:12.401Z,-1.42
2022-11-23T22:11:46.307Z,-1.40
2022-11-23T22:14:20.656Z,-1.39
2022-11-23T22:16:56.200Z,-1.37
2022-11-23T22:19:29.893Z,-1.38
2022-11-23T22:22:04.288Z,-1.39
2022-11-23T22:24:37.448Z,-1.37
2022-11-23T22:27:11.336Z,-1.38
2022-11-23T22:29:44.778Z,-1.41
2022-11-23T22:32:18.103Z,-1.40
2022-11-23T22:34:51.748Z,-1.40
2022-11-23T22:37:25.177Z,-1.40
2022-11-23T22:39:58.513Z,-1.46
2022-11-23T22:42:31.989Z,-1.41
2022-11-23T22:45:05.652Z,-1.35
2022-11-23T22:47:38.957Z,-1.29
2022-11-23T22:50:12.943Z,-1.28
2022-11-23T22:52:46.604Z,-1.31
2022-11-23T22:55:20.142Z,-1.36
2022-11-23T22:57:53.536Z,-1.38
2022-11-23T23:00:26.886Z,-1.35
2022-11-23T23:03:00.385Z,-1.34
2022-11-23T23:05:33.912Z,-1.34
2022-11-23T23:08:08.141Z,-1.34
2022-11-23T23:10:41.488Z,-1.39
2022-11-23T23:13:14.692Z,-1.48
2022-11-23T23:15:48.384Z,-1.56
2022-11-23T23:18:21.839Z,-1.60
2022-11-23T23:20:56.555Z,-1.67
2022-11-23T23:23:29.909Z,-1.69
2022-11-23T23:26:03.621Z,-1.68
2022-11-23T23:28:37.035Z,-1.68
2022-11-23T23:31:12.860Z,-1.72
2022-11-23T23:33:46.347Z,-1.71
2022-11-23T23:36:21.987Z,-1.64
2022-11-23T23:38:55.670Z,-1.60
2022-11-23T23:41:29.148Z,-1.60
2022-11-23T23:44:02.949Z,-1.67
2022-11-23T23:46:36.395Z,-1.71
2022-11-23T23:49:09.978Z,-1.73
2022-11-23T23:51:47.543Z,-1.79
2022-11-23T23:54:19.025Z,-1.86
2022-11-23T23:56:52.825Z,-1.93
2022-11-23T23:59:26.288Z,-1.98
